createdAt,value
2023-05-11T00:00:47.337Z,0.00
2023-05-11T00:01:47.348Z,0.00
2023-05-11T00:02:47.390Z,0.00
2023-05-11T00:03:47.332Z,0.00
2023-05-11T00:04:47.281Z,0.00
2023-05-11T00:05:48.268Z,0.00
2023-05-11T00:06:48.073Z,0.00
2023-05-11T00:07:47.253Z,0.00
2023-05-11T00:08:47.241Z,0.00
2023-05-11T00:09:47.216Z,0.00
2023-05-11T00:10:47.201Z,0.00
2023-05-11T00:11:47.274Z,0.00
2023-05-11T00:12:47.199Z,0.00
2023-05-11T00:13:47.179Z,0.00
2023-05-11T00:14:47.174Z,0.00
2023-05-11T00:15:47.232Z,0.00
2023-05-11T00:16:47.146Z,0.00
2023-05-11T00:17:47.226Z,0.00
2023-05-11T00:18:47.171Z,0.00
2023-05-11T00:19:47.108Z,0.00
2023-05-11T00:20:47.102Z,0.00
2023-05-11T00:21:47.090Z,0.00
2023-05-11T00:22:47.188Z,0.00
2023-05-11T00:23:47.080Z,0.00
2023-05-11T00:24:47.063Z,0.00
2023-05-11T00:25:47.042Z,0.00
2023-05-11T00:26:47.038Z,0.00
2023-05-11T00:27:47.044Z,0.00
2023-05-11T00:28:47.034Z,0.00
2023-05-11T00:29:47.004Z,0.00
2023-05-11T00:30:46.989Z,0.00
2023-05-11T00:31:47.045Z,0.00
2023-05-11T00:32:47.019Z,0.00
2023-05-11T00:33:46.963Z,0.00
2023-05-11T00:34:47.003Z,0.00
2023-05-11T00:35:46.915Z,0.00
2023-05-11T00:36:46.933Z,0.00
2023-05-11T00:37:46.934Z,0.00
2023-05-11T00:38:46.927Z,0.00
2023-05-11T00:39:46.892Z,0.00
2023-05-11T00:40:46.920Z,0.00
2023-05-11T00:41:46.887Z,0.00
2023-05-11T00:42:48.113Z,0.00
2023-05-11T00:43:46.833Z,0.00
2023-05-11T00:44:46.822Z,0.00
2023-05-11T00:45:46.850Z,0.00
2023-05-11T00:46:46.833Z,0.00
2023-05-11T00:47:48.138Z,0.00
2023-05-11T00:48:46.785Z,0.00
2023-05-11T00:49:46.786Z,0.00
2023-05-11T00:50:46.772Z,0.00
2023-05-11T00:51:46.794Z,0.00
2023-05-11T00:52:46.758Z,0.00
2023-05-11T00:53:46.730Z,0.00
2023-05-11T00:54:46.711Z,0.00
2023-05-11T00:55:46.717Z,0.00
2023-05-11T00:56:46.726Z,0.00
2023-05-11T00:57:46.700Z,0.00
2023-05-11T00:58:46.686Z,0.00
2023-05-11T00:59:46.659Z,0.00
2023-05-11T01:00:46.693Z,0.00
2023-05-11T01:01:46.657Z,0.00
2023-05-11T01:02:46.764Z,0.00
2023-05-11T01:03:46.642Z,0.00
2023-05-11T01:04:46.611Z,0.00
2023-05-11T01:05:46.606Z,0.00
2023-05-11T01:06:46.636Z,0.00
2023-05-11T01:07:46.577Z,0.00
2023-05-11T01:08:46.576Z,0.00
2023-05-11T01:09:46.566Z,0.00
2023-05-11T01:10:46.548Z,0.00
2023-05-11T01:11:46.581Z,0.00
2023-05-11T01:12:46.634Z,0.00
2023-05-11T01:13:46.516Z,0.00
2023-05-11T01:14:46.533Z,0.00
2023-05-11T01:15:46.505Z,0.00
2023-05-11T01:16:46.519Z,0.00
2023-05-11T01:17:46.555Z,0.00
2023-05-11T01:18:47.522Z,0.00
2023-05-11T01:19:46.459Z,0.00
2023-05-11T01:20:46.439Z,0.00
2023-05-11T01:21:46.432Z,0.00
2023-05-11T01:22:46.426Z,0.00
2023-05-11T01:23:46.434Z,0.00
2023-05-11T01:24:46.394Z,0.00
2023-05-11T01:25:46.396Z,0.00
2023-05-11T01:26:46.433Z,0.00
2023-05-11T01:27:46.417Z,0.00
2023-05-11T01:28:46.358Z,0.00
2023-05-11T01:29:46.358Z,0.00
2023-05-11T01:30:46.336Z,0.00
2023-05-11T01:31:46.456Z,0.00
2023-05-11T01:32:46.507Z,0.00
2023-05-11T01:33:46.325Z,0.00
2023-05-11T01:34:46.320Z,0.00
2023-05-11T01:35:46.379Z,0.00
2023-05-11T01:36:47.739Z,0.00
2023-05-11T01:37:46.307Z,0.00
2023-05-11T01:38:46.263Z,0.00
2023-05-11T01:39:47.158Z,0.00
2023-05-11T01:40:46.231Z,0.00
2023-05-11T01:41:46.289Z,0.00
2023-05-11T01:42:46.233Z,0.00
2023-05-11T01:43:47.648Z,0.00
2023-05-11T01:44:46.595Z,0.00
2023-05-11T01:45:46.651Z,0.00
2023-05-11T01:46:47.133Z,0.00
2023-05-11T01:47:46.265Z,0.00
2023-05-11T01:48:46.138Z,0.00
2023-05-11T01:49:47.116Z,0.00
2023-05-11T01:50:46.955Z,0.00
2023-05-11T01:51:46.268Z,0.00
2023-05-11T01:52:46.125Z,0.00
2023-05-11T01:53:46.223Z,0.00
2023-05-11T01:54:47.572Z,0.00
2023-05-11T01:55:46.056Z,0.00
2023-05-11T01:56:46.059Z,0.00
2023-05-11T01:57:46.379Z,0.00
2023-05-11T01:58:46.445Z,0.00
2023-05-11T01:59:46.013Z,0.00
2023-05-11T02:00:45.999Z,0.00
2023-05-11T02:01:46.077Z,0.00
2023-05-11T02:02:46.538Z,0.00
2023-05-11T02:03:46.151Z,0.00
2023-05-11T02:04:45.953Z,0.00
2023-05-11T02:05:47.415Z,0.00
2023-05-11T02:06:46.096Z,0.00
2023-05-11T02:07:46.804Z,0.00
2023-05-11T02:08:46.634Z,0.00
2023-05-11T02:09:45.903Z,0.00
2023-05-11T02:10:46.158Z,0.00
2023-05-11T02:11:45.874Z,0.00
2023-05-11T02:12:45.886Z,0.00
2023-05-11T02:13:47.830Z,0.00
2023-05-11T02:14:45.842Z,0.00
2023-05-11T02:15:45.887Z,0.00
2023-05-11T02:16:45.817Z,0.00
2023-05-11T02:17:45.826Z,0.00
2023-05-11T02:18:45.915Z,0.00
2023-05-11T02:19:47.746Z,0.00
2023-05-11T02:20:45.820Z,0.00
2023-05-11T02:21:45.779Z,0.00
2023-05-11T02:22:45.858Z,0.00
2023-05-11T02:23:45.825Z,0.00
2023-05-11T02:24:46.004Z,0.00
2023-05-11T02:25:46.749Z,0.00
2023-05-11T02:26:45.696Z,0.00
2023-05-11T02:27:45.704Z,0.00
2023-05-11T02:28:45.691Z,0.00
2023-05-11T02:29:45.837Z,0.00
2023-05-11T02:30:45.670Z,0.00
2023-05-11T02:31:46.015Z,0.00
2023-05-11T02:32:45.713Z,0.00
2023-05-11T02:33:45.633Z,0.00
2023-05-11T02:34:47.070Z,0.00
2023-05-11T02:35:45.654Z,0.00
2023-05-11T02:36:45.919Z,0.00
2023-05-11T02:37:45.584Z,0.00
2023-05-11T02:38:45.578Z,0.00
2023-05-11T02:39:45.572Z,0.00
2023-05-11T02:40:47.033Z,0.00
2023-05-11T02:41:45.581Z,0.00
2023-05-11T02:42:45.522Z,0.00
2023-05-11T02:43:45.537Z,0.00
2023-05-11T02:44:46.989Z,0.00
2023-05-11T02:45:45.958Z,0.00
2023-05-11T02:46:45.533Z,0.00
2023-05-11T02:47:46.120Z,0.00
2023-05-11T02:48:45.479Z,0.00
2023-05-11T02:49:45.467Z,0.00
2023-05-11T02:50:45.885Z,0.00
2023-05-11T02:51:45.451Z,0.00
2023-05-11T02:52:45.413Z,0.00
2023-05-11T02:53:45.417Z,0.00
2023-05-11T02:54:46.347Z,0.00
2023-05-11T02:55:45.420Z,0.00
2023-05-11T02:56:46.870Z,0.00
2023-05-11T02:57:45.403Z,0.00
2023-05-11T02:58:45.378Z,0.00
2023-05-11T02:59:45.393Z,0.00
2023-05-11T03:00:45.447Z,0.00
2023-05-11T03:01:45.503Z,0.00
2023-05-11T03:02:45.344Z,0.00
2023-05-11T03:03:45.374Z,0.00
2023-05-11T03:04:46.240Z,0.00
2023-05-11T03:05:45.302Z,0.00
2023-05-11T03:06:45.372Z,0.00
2023-05-11T03:07:45.258Z,0.00
2023-05-11T03:08:45.249Z,0.00
2023-05-11T03:09:45.249Z,0.00
2023-05-11T03:10:45.341Z,0.00
2023-05-11T03:11:46.247Z,0.00
2023-05-11T03:12:46.023Z,0.00
2023-05-11T03:13:45.257Z,0.00
2023-05-11T03:14:45.176Z,0.00
2023-05-11T03:15:46.644Z,0.00
2023-05-11T03:16:45.180Z,0.00
2023-05-11T03:17:45.192Z,0.00
2023-05-11T03:18:45.233Z,0.00
2023-05-11T03:19:45.119Z,0.00
2023-05-11T03:20:45.299Z,0.00
2023-05-11T03:21:45.110Z,0.00
2023-05-11T03:22:45.086Z,0.00
2023-05-11T03:23:45.067Z,0.00
2023-05-11T03:24:45.115Z,0.00
2023-05-11T03:25:45.061Z,0.00
2023-05-11T03:26:46.510Z,0.00
2023-05-11T03:27:45.066Z,0.00
2023-05-11T03:28:45.198Z,0.00
2023-05-11T03:29:45.011Z,0.00
2023-05-11T03:30:44.985Z,0.00
2023-05-11T03:31:45.017Z,0.00
2023-05-11T03:32:45.025Z,0.00
2023-05-11T03:33:45.315Z,0.00
2023-05-11T03:34:44.956Z,0.00
2023-05-11T03:35:45.027Z,0.00
2023-05-11T03:36:44.934Z,0.00
2023-05-11T03:37:44.970Z,0.00
2023-05-11T03:38:44.920Z,0.00
2023-05-11T03:39:46.363Z,0.00
2023-05-11T03:40:45.759Z,0.00
2023-05-11T03:41:44.927Z,0.00
2023-05-11T03:42:45.884Z,0.00
2023-05-11T03:43:44.872Z,0.00
2023-05-11T03:44:44.898Z,0.00
2023-05-11T03:45:44.913Z,0.00
2023-05-11T03:46:45.676Z,0.00
2023-05-11T03:47:44.852Z,0.00
2023-05-11T03:48:44.808Z,0.00
2023-05-11T03:49:44.896Z,0.00
2023-05-11T03:50:44.779Z,0.00
2023-05-11T03:51:44.801Z,0.00
2023-05-11T03:52:44.761Z,0.00
2023-05-11T03:53:44.961Z,0.00
2023-05-11T03:54:44.763Z,0.00
2023-05-11T03:55:44.751Z,0.00
2023-05-11T03:56:44.720Z,0.00
2023-05-11T03:57:44.735Z,0.00
2023-05-11T03:58:44.697Z,0.00
2023-05-11T03:59:44.968Z,0.00
2023-05-11T04:00:46.128Z,0.00
2023-05-11T04:01:44.907Z,0.00
2023-05-11T04:02:45.736Z,0.00
2023-05-11T04:03:44.862Z,0.00
2023-05-11T04:04:44.737Z,5.62
2023-05-11T04:05:45.579Z,5.62
2023-05-11T04:06:46.058Z,5.62
2023-05-11T04:07:44.605Z,5.62
2023-05-11T04:08:44.579Z,5.62
2023-05-11T04:09:45.441Z,5.62
2023-05-11T04:10:44.563Z,5.62
2023-05-11T04:11:45.571Z,5.62
2023-05-11T04:12:44.547Z,5.62
2023-05-11T04:13:44.556Z,5.62
2023-05-11T04:14:46.003Z,5.62
2023-05-11T04:15:46.034Z,5.62
2023-05-11T04:16:44.495Z,5.62
2023-05-11T04:17:45.404Z,5.62
2023-05-11T04:18:46.079Z,5.62
2023-05-11T04:19:45.434Z,5.62
2023-05-11T04:20:44.488Z,5.62
2023-05-11T04:21:45.907Z,5.62
2023-05-11T04:22:44.457Z,5.62
2023-05-11T04:23:44.432Z,5.62
2023-05-11T04:24:44.472Z,11.25
2023-05-11T04:25:44.395Z,11.25
2023-05-11T04:26:44.397Z,11.25
2023-05-11T04:27:44.569Z,11.25
2023-05-11T04:28:44.379Z,11.25
2023-05-11T04:29:44.365Z,11.25
2023-05-11T04:30:44.373Z,11.25
2023-05-11T04:31:44.329Z,11.25
2023-05-11T04:32:44.353Z,11.25
2023-05-11T04:33:44.315Z,11.25
2023-05-11T04:34:45.115Z,5.62
2023-05-11T04:35:44.306Z,5.62
2023-05-11T04:36:45.110Z,11.25
2023-05-11T04:37:44.269Z,5.62
2023-05-11T04:38:44.729Z,5.62
2023-05-11T04:39:44.269Z,5.62
2023-05-11T04:40:44.233Z,5.62
2023-05-11T04:41:44.234Z,5.62
2023-05-11T04:42:44.699Z,5.62
2023-05-11T04:43:44.476Z,5.62
2023-05-11T04:44:44.190Z,5.62
2023-05-11T04:45:44.299Z,11.25
2023-05-11T04:46:44.199Z,11.25
2023-05-11T04:47:44.277Z,11.25
2023-05-11T04:48:44.186Z,11.25
2023-05-11T04:49:44.259Z,16.88
2023-05-11T04:50:44.652Z,22.50
2023-05-11T04:51:44.195Z,16.88
2023-05-11T04:52:44.118Z,16.88
2023-05-11T04:53:44.708Z,16.88
2023-05-11T04:54:44.111Z,11.25
2023-05-11T04:55:44.328Z,11.25
2023-05-11T04:56:44.459Z,16.88
2023-05-11T04:57:44.171Z,16.88
2023-05-11T04:58:44.182Z,16.88
2023-05-11T04:59:45.186Z,11.25
2023-05-11T05:00:45.013Z,11.25
2023-05-11T05:01:44.071Z,11.25
2023-05-11T05:02:44.176Z,11.25
2023-05-11T05:03:45.016Z,11.25
2023-05-11T05:04:44.703Z,11.25
2023-05-11T05:05:43.961Z,11.25
2023-05-11T05:06:44.335Z,11.25
2023-05-11T05:07:43.952Z,11.25
2023-05-11T05:08:43.950Z,16.88
2023-05-11T05:09:45.507Z,16.88
2023-05-11T05:10:43.916Z,11.25
2023-05-11T05:11:43.914Z,11.25
2023-05-11T05:12:43.912Z,11.25
2023-05-11T05:13:43.879Z,11.25
2023-05-11T05:14:43.858Z,16.88
2023-05-11T05:15:43.888Z,16.88
2023-05-11T05:16:43.943Z,16.88
2023-05-11T05:17:45.316Z,16.88
2023-05-11T05:18:43.959Z,16.88
2023-05-11T05:19:43.829Z,16.88
2023-05-11T05:20:45.277Z,16.88
2023-05-11T05:21:45.375Z,16.88
2023-05-11T05:22:45.308Z,16.88
2023-05-11T05:23:45.234Z,16.88
2023-05-11T05:24:43.873Z,16.88
2023-05-11T05:25:43.741Z,16.88
2023-05-11T05:26:43.780Z,16.88
2023-05-11T05:27:43.701Z,16.88
2023-05-11T05:28:43.730Z,11.25
2023-05-11T05:29:44.674Z,11.25
2023-05-11T05:30:43.764Z,11.25
2023-05-11T05:31:43.690Z,11.25
2023-05-11T05:32:43.698Z,11.25
2023-05-11T05:33:43.784Z,11.25
2023-05-11T05:34:45.161Z,11.25
2023-05-11T05:35:45.162Z,11.25
2023-05-11T05:36:43.681Z,11.25
2023-05-11T05:37:44.608Z,11.25
2023-05-11T05:38:43.629Z,11.25
2023-05-11T05:39:44.336Z,11.25
2023-05-11T05:40:43.605Z,11.25
2023-05-11T05:41:43.590Z,11.25
2023-05-11T05:42:43.603Z,11.25
2023-05-11T05:43:44.405Z,11.25
2023-05-11T05:44:44.537Z,11.25
2023-05-11T05:45:45.040Z,11.25
2023-05-11T05:46:43.630Z,11.25
2023-05-11T05:47:43.590Z,16.88
2023-05-11T05:48:43.562Z,16.88
2023-05-11T05:49:44.502Z,16.88
2023-05-11T05:50:43.615Z,16.88
2023-05-11T05:51:44.477Z,16.88
2023-05-11T05:52:43.485Z,16.88
2023-05-11T05:53:45.422Z,11.25
2023-05-11T05:54:44.278Z,11.25
2023-05-11T05:55:43.431Z,11.25
2023-05-11T05:56:43.503Z,11.25
2023-05-11T05:57:43.436Z,11.25
2023-05-11T05:58:43.474Z,5.62
2023-05-11T05:59:43.376Z,5.62
2023-05-11T06:00:43.390Z,5.62
2023-05-11T06:01:44.812Z,5.62
2023-05-11T06:02:43.471Z,5.62
2023-05-11T06:03:43.441Z,5.62
2023-05-11T06:04:43.578Z,5.62
2023-05-11T06:05:43.310Z,5.62
2023-05-11T06:06:43.282Z,5.62
2023-05-11T06:07:46.647Z,5.62
2023-05-11T06:08:44.291Z,11.25
2023-05-11T06:09:43.268Z,16.88
2023-05-11T06:10:43.580Z,22.50
2023-05-11T06:11:43.240Z,28.12
2023-05-11T06:12:44.201Z,33.75
2023-05-11T06:13:43.229Z,33.75
2023-05-11T06:14:43.246Z,28.12
2023-05-11T06:15:43.938Z,33.75
2023-05-11T06:16:43.264Z,33.75
2023-05-11T06:17:43.209Z,33.75
2023-05-11T06:18:43.217Z,33.75
2023-05-11T06:19:43.173Z,45.00
2023-05-11T06:20:43.253Z,45.00
2023-05-11T06:21:44.679Z,45.00
2023-05-11T06:22:44.099Z,50.62
2023-05-11T06:23:44.103Z,50.62
2023-05-11T06:24:43.116Z,50.62
2023-05-11T06:25:43.117Z,45.00
2023-05-11T06:26:44.047Z,45.00
2023-05-11T06:27:44.580Z,39.38
2023-05-11T06:28:43.200Z,39.38
2023-05-11T06:29:43.066Z,39.38
2023-05-11T06:30:44.488Z,39.38
2023-05-11T06:31:43.448Z,39.38
2023-05-11T06:32:45.084Z,45.00
2023-05-11T06:33:43.002Z,50.62
2023-05-11T06:34:43.008Z,56.25
2023-05-11T06:35:43.020Z,56.25
2023-05-11T06:36:44.426Z,67.50
2023-05-11T06:37:43.951Z,78.75
2023-05-11T06:38:43.059Z,84.38
2023-05-11T06:39:44.412Z,84.38
2023-05-11T06:40:42.958Z,90.00
2023-05-11T06:41:42.921Z,95.62
2023-05-11T06:42:42.926Z,84.38
2023-05-11T06:43:42.886Z,84.38
2023-05-11T06:44:42.929Z,84.38
2023-05-11T06:45:42.868Z,84.38
2023-05-11T06:46:42.852Z,90.00
2023-05-11T06:47:44.355Z,90.00
2023-05-11T06:48:42.839Z,95.62
2023-05-11T06:49:43.688Z,90.00
2023-05-11T06:50:42.848Z,90.00
2023-05-11T06:51:42.786Z,90.00
2023-05-11T06:52:42.800Z,95.62
2023-05-11T06:53:42.783Z,90.00
2023-05-11T06:54:42.767Z,84.38
2023-05-11T06:55:43.709Z,84.38
2023-05-11T06:56:42.756Z,78.75
2023-05-11T06:57:43.720Z,84.38
2023-05-11T06:58:43.519Z,84.38
2023-05-11T06:59:42.700Z,84.38
2023-05-11T07:00:42.809Z,101.25
2023-05-11T07:01:42.813Z,101.25
2023-05-11T07:02:42.715Z,101.25
2023-05-11T07:03:42.649Z,101.25
2023-05-11T07:04:42.706Z,106.88
2023-05-11T07:05:42.639Z,106.88
2023-05-11T07:06:42.631Z,129.38
2023-05-11T07:07:42.618Z,135.00
2023-05-11T07:08:42.624Z,129.38
2023-05-11T07:09:42.776Z,129.38
2023-05-11T07:10:42.813Z,135.00
2023-05-11T07:11:42.564Z,140.62
2023-05-11T07:12:42.571Z,112.50
2023-05-11T07:13:42.553Z,112.50
2023-05-11T07:14:42.534Z,118.12
2023-05-11T07:15:42.549Z,129.38
2023-05-11T07:16:42.601Z,123.75
2023-05-11T07:17:42.547Z,123.75
2023-05-11T07:18:42.591Z,123.75
2023-05-11T07:19:42.488Z,129.38
2023-05-11T07:20:43.268Z,135.00
2023-05-11T07:21:42.461Z,140.62
2023-05-11T07:22:42.477Z,140.62
2023-05-11T07:23:42.534Z,146.25
2023-05-11T07:24:42.487Z,140.62
2023-05-11T07:25:42.494Z,140.62
2023-05-11T07:26:42.487Z,135.00
2023-05-11T07:27:42.433Z,140.62
2023-05-11T07:28:42.379Z,157.50
2023-05-11T07:29:42.416Z,174.38
2023-05-11T07:30:42.393Z,180.00
2023-05-11T07:31:43.334Z,180.00
2023-05-11T07:32:42.391Z,174.38
2023-05-11T07:33:42.411Z,168.75
2023-05-11T07:34:43.329Z,157.50
2023-05-11T07:35:42.325Z,123.75
2023-05-11T07:36:42.309Z,101.25
2023-05-11T07:37:42.287Z,95.62
2023-05-11T07:38:42.269Z,95.62
2023-05-11T07:39:42.262Z,90.00
2023-05-11T07:40:42.280Z,78.75
2023-05-11T07:41:42.246Z,73.12
2023-05-11T07:42:44.249Z,78.75
2023-05-11T07:43:42.224Z,90.00
2023-05-11T07:44:43.198Z,95.62
2023-05-11T07:45:42.200Z,101.25
2023-05-11T07:46:42.359Z,106.88
2023-05-11T07:47:42.241Z,106.88
2023-05-11T07:48:42.180Z,112.50
2023-05-11T07:49:44.013Z,118.12
2023-05-11T07:50:42.138Z,123.75
2023-05-11T07:51:42.951Z,129.38
2023-05-11T07:52:42.213Z,123.75
2023-05-11T07:53:42.100Z,123.75
2023-05-11T07:54:43.579Z,118.12
2023-05-11T07:55:42.877Z,112.50
2023-05-11T07:56:43.541Z,106.88
2023-05-11T07:57:43.532Z,106.88
2023-05-11T07:58:42.126Z,101.25
2023-05-11T07:59:42.095Z,112.50
2023-05-11T08:00:42.168Z,112.50
2023-05-11T08:01:43.558Z,112.50
2023-05-11T08:02:42.221Z,106.88
2023-05-11T08:03:41.987Z,101.25
2023-05-11T08:04:42.026Z,95.62
2023-05-11T08:05:42.130Z,101.25
2023-05-11T08:06:41.964Z,95.62
2023-05-11T08:07:42.020Z,101.25
2023-05-11T08:08:41.933Z,101.25
2023-05-11T08:09:41.933Z,101.25
2023-05-11T08:10:43.415Z,106.88
2023-05-11T08:11:41.943Z,106.88
2023-05-11T08:12:41.911Z,106.88
2023-05-11T08:13:41.980Z,106.88
2023-05-11T08:14:41.892Z,112.50
2023-05-11T08:15:41.865Z,118.12
2023-05-11T08:16:41.975Z,118.12
2023-05-11T08:17:41.892Z,118.12
2023-05-11T08:18:41.901Z,123.75
2023-05-11T08:19:41.852Z,129.38
2023-05-11T08:20:41.822Z,140.62
2023-05-11T08:21:41.805Z,146.25
2023-05-11T08:22:42.057Z,174.38
2023-05-11T08:23:42.927Z,180.00
2023-05-11T08:24:41.771Z,180.00
2023-05-11T08:25:43.313Z,174.38
2023-05-11T08:26:42.563Z,180.00
2023-05-11T08:27:42.564Z,185.62
2023-05-11T08:28:41.762Z,180.00
2023-05-11T08:29:41.722Z,157.50
2023-05-11T08:30:42.088Z,123.75
2023-05-11T08:31:42.840Z,112.50
2023-05-11T08:33:43.303Z,135.00
2023-05-11T08:34:43.316Z,163.12
2023-05-11T08:35:41.831Z,180.00
2023-05-11T08:36:41.908Z,180.00
2023-05-11T08:37:41.673Z,163.12
2023-05-11T08:38:42.613Z,146.25
2023-05-11T08:39:47.242Z,129.38
2023-05-11T08:40:42.771Z,123.75
2023-05-11T08:41:41.589Z,112.50
2023-05-11T08:42:41.578Z,95.62
2023-05-11T08:43:41.562Z,78.75
2023-05-11T08:44:41.549Z,67.50
2023-05-11T08:45:42.541Z,61.88
2023-05-11T08:46:41.526Z,61.88
2023-05-11T08:47:41.570Z,50.62
2023-05-11T08:48:42.965Z,50.62
2023-05-11T08:49:41.686Z,50.62
2023-05-11T08:50:41.553Z,50.62
2023-05-11T08:51:42.985Z,56.25
2023-05-11T08:52:41.456Z,56.25
2023-05-11T08:53:49.524Z,56.25
2023-05-11T08:54:41.500Z,50.62
2023-05-11T08:55:42.013Z,50.62
2023-05-11T08:56:42.889Z,50.62
2023-05-11T08:57:42.989Z,50.62
2023-05-11T08:58:41.382Z,56.25
2023-05-11T08:59:41.463Z,56.25
2023-05-11T09:00:42.829Z,56.25
2023-05-11T09:01:42.881Z,56.25
2023-05-11T09:02:41.360Z,56.25
2023-05-11T09:03:42.812Z,61.88
2023-05-11T09:04:42.789Z,61.88
2023-05-11T09:05:41.471Z,67.50
2023-05-11T09:06:41.333Z,73.12
2023-05-11T09:07:42.756Z,78.75
2023-05-11T09:08:41.288Z,90.00
2023-05-11T09:09:42.054Z,95.62
2023-05-11T09:10:41.404Z,106.88
2023-05-11T09:11:41.681Z,112.50
2023-05-11T09:12:41.235Z,118.12
2023-05-11T09:13:41.246Z,129.38
2023-05-11T09:14:41.277Z,135.00
2023-05-11T09:15:41.241Z,135.00
2023-05-11T09:16:42.017Z,135.00
2023-05-11T09:17:41.227Z,135.00
2023-05-11T09:18:41.229Z,135.00
2023-05-11T09:19:41.193Z,135.00
2023-05-11T09:20:41.149Z,129.38
2023-05-11T09:21:41.138Z,135.00
2023-05-11T09:22:41.115Z,135.00
2023-05-11T09:23:42.582Z,129.38
2023-05-11T09:24:41.090Z,129.38
2023-05-11T09:25:41.137Z,123.75
2023-05-11T09:26:41.537Z,123.75
2023-05-11T09:27:41.693Z,123.75
2023-05-11T09:29:41.039Z,123.75
2023-05-11T09:30:41.081Z,118.12
2023-05-11T09:31:41.079Z,112.50
2023-05-11T09:32:41.065Z,118.12
2023-05-11T09:33:41.005Z,118.12
2023-05-11T09:34:43.127Z,123.75
2023-05-11T09:35:40.976Z,123.75
2023-05-11T09:36:42.440Z,123.75
2023-05-11T09:37:41.763Z,118.12
2023-05-11T09:38:40.937Z,123.75
2023-05-11T09:39:53.417Z,129.38
2023-05-11T09:40:43.167Z,129.38
2023-05-11T09:41:40.950Z,135.00
2023-05-11T09:42:41.869Z,129.38
2023-05-11T09:43:40.905Z,129.38
2023-05-11T09:44:40.868Z,123.75
2023-05-11T09:45:40.886Z,118.12
2023-05-11T09:46:40.899Z,118.12
2023-05-11T09:47:41.192Z,123.75
2023-05-11T09:48:42.285Z,129.38
2023-05-11T09:49:42.830Z,135.00
2023-05-11T09:50:40.865Z,140.62
2023-05-11T09:51:40.998Z,151.88
2023-05-11T09:52:42.273Z,157.50
2023-05-11T09:53:42.234Z,157.50
2023-05-11T09:54:42.252Z,163.12
2023-05-11T09:55:42.252Z,163.12
2023-05-11T09:56:40.744Z,157.50
2023-05-11T09:57:41.713Z,151.88
2023-05-11T09:58:40.874Z,151.88
2023-05-11T09:59:40.757Z,151.88
2023-05-11T10:00:40.712Z,146.25
2023-05-11T10:01:40.741Z,140.62
2023-05-11T10:02:41.801Z,146.25
2023-05-11T10:03:40.825Z,146.25
2023-05-11T10:04:41.472Z,146.25
2023-05-11T10:05:41.700Z,146.25
2023-05-11T10:06:40.945Z,146.25
2023-05-11T10:07:40.872Z,146.25
2023-05-11T10:08:41.692Z,151.88
2023-05-11T10:09:40.616Z,157.50
2023-05-11T10:10:40.587Z,163.12
2023-05-11T10:11:41.175Z,168.75
2023-05-11T10:12:40.661Z,180.00
2023-05-11T10:13:40.799Z,191.25
2023-05-11T10:14:41.361Z,196.88
2023-05-11T10:15:40.883Z,202.50
2023-05-11T10:16:41.978Z,208.12
2023-05-11T10:17:40.525Z,225.00
2023-05-11T10:18:41.472Z,236.25
2023-05-11T10:19:40.999Z,236.25
2023-05-11T10:20:40.629Z,236.25
2023-05-11T10:21:40.640Z,247.50
2023-05-11T10:22:41.929Z,253.12
2023-05-11T10:23:40.493Z,258.75
2023-05-11T10:24:40.454Z,253.12
2023-05-11T10:25:41.897Z,253.12
2023-05-11T10:26:41.283Z,258.75
2023-05-11T10:27:42.872Z,258.75
2023-05-11T10:28:41.855Z,258.75
2023-05-11T10:29:41.417Z,264.38
2023-05-11T10:30:40.354Z,275.62
2023-05-11T10:31:40.363Z,281.25
2023-05-11T10:32:41.364Z,286.88
2023-05-11T10:33:42.308Z,292.50
2023-05-11T10:34:40.511Z,286.88
2023-05-11T10:35:41.007Z,286.88
2023-05-11T10:36:41.784Z,281.25
2023-05-11T10:37:40.333Z,281.25
2023-05-11T10:38:40.295Z,275.62
2023-05-11T10:39:41.111Z,275.62
2023-05-11T10:40:40.332Z,275.62
2023-05-11T10:41:41.230Z,270.00
2023-05-11T10:42:40.234Z,275.62
2023-05-11T10:43:40.254Z,281.25
2023-05-11T10:44:40.208Z,286.88
2023-05-11T10:45:40.221Z,292.50
2023-05-11T10:46:40.944Z,292.50
2023-05-11T10:47:40.200Z,292.50
2023-05-11T10:48:41.628Z,298.12
2023-05-11T10:49:40.178Z,298.12
2023-05-11T10:50:43.387Z,292.50
2023-05-11T10:51:40.144Z,292.50
2023-05-11T10:52:40.955Z,281.25
2023-05-11T10:53:40.113Z,281.25
2023-05-11T10:54:40.144Z,275.62
2023-05-11T10:55:40.357Z,275.62
2023-05-11T10:56:40.076Z,281.25
2023-05-11T10:57:40.058Z,286.88
2023-05-11T10:58:41.061Z,286.88
2023-05-11T10:59:40.092Z,281.25
2023-05-11T11:00:40.193Z,281.25
2023-05-11T11:01:40.284Z,286.88
2023-05-11T11:02:40.301Z,286.88
2023-05-11T11:03:40.023Z,292.50
2023-05-11T11:04:40.362Z,298.12
2023-05-11T11:05:41.027Z,298.12
2023-05-11T11:06:39.996Z,298.12
2023-05-11T11:07:39.974Z,298.12
2023-05-11T11:08:40.165Z,286.88
2023-05-11T11:09:39.927Z,275.62
2023-05-11T11:10:39.958Z,270.00
2023-05-11T11:11:39.947Z,275.62
2023-05-11T11:12:39.894Z,281.25
2023-05-11T11:13:39.885Z,286.88
2023-05-11T11:14:40.130Z,281.25
2023-05-11T11:15:39.906Z,264.38
2023-05-11T11:16:40.114Z,258.75
2023-05-11T11:17:39.882Z,258.75
2023-05-11T11:18:39.891Z,264.38
2023-05-11T11:19:39.850Z,270.00
2023-05-11T11:20:39.798Z,270.00
2023-05-11T11:21:39.804Z,275.62
2023-05-11T11:22:39.786Z,298.12
2023-05-11T11:23:39.804Z,309.38
2023-05-11T11:24:39.772Z,315.00
2023-05-11T11:25:39.760Z,326.25
2023-05-11T11:26:39.757Z,326.25
2023-05-11T11:27:40.141Z,331.88
2023-05-11T11:28:40.715Z,337.50
2023-05-11T11:29:39.704Z,337.50
2023-05-11T11:30:39.704Z,331.88
2023-05-11T11:31:39.727Z,320.62
2023-05-11T11:32:39.690Z,315.00
2023-05-11T11:33:39.675Z,309.38
2023-05-11T11:34:39.681Z,320.62
2023-05-11T11:35:39.706Z,331.88
2023-05-11T11:36:40.652Z,326.25
2023-05-11T11:37:39.604Z,315.00
2023-05-11T11:38:39.616Z,303.75
2023-05-11T11:39:39.641Z,292.50
2023-05-11T11:40:50.759Z,281.25
2023-05-11T11:41:42.054Z,281.25
2023-05-11T11:42:39.553Z,270.00
2023-05-11T11:43:39.556Z,275.62
2023-05-11T11:44:39.580Z,292.50
2023-05-11T11:45:39.554Z,309.38
2023-05-11T11:46:39.557Z,292.50
2023-05-11T11:47:39.559Z,331.88
2023-05-11T11:48:39.498Z,343.12
2023-05-11T11:49:39.607Z,348.75
2023-05-11T11:50:39.500Z,343.12
2023-05-11T11:51:39.467Z,337.50
2023-05-11T11:52:39.475Z,337.50
2023-05-11T11:53:41.010Z,331.88
2023-05-11T11:54:39.452Z,337.50
2023-05-11T11:55:39.419Z,337.50
2023-05-11T11:56:39.592Z,343.12
2023-05-11T11:57:39.405Z,354.38
2023-05-11T11:58:39.405Z,337.50
2023-05-11T11:59:39.408Z,320.62
2023-05-11T12:00:39.363Z,331.88
2023-05-11T12:01:40.336Z,337.50
2023-05-11T12:02:40.412Z,331.88
2023-05-11T12:03:39.470Z,309.38
2023-05-11T12:04:40.197Z,298.12
2023-05-11T12:05:39.355Z,303.75
2023-05-11T12:06:40.290Z,298.12
2023-05-11T12:07:39.283Z,298.12
2023-05-11T12:08:40.277Z,303.75
2023-05-11T12:09:40.733Z,326.25
2023-05-11T12:10:39.248Z,331.88
2023-05-11T12:11:39.257Z,343.12
2023-05-11T12:12:40.156Z,348.75
2023-05-11T12:13:39.242Z,331.88
2023-05-11T12:14:40.740Z,315.00
2023-05-11T12:15:40.193Z,303.75
2023-05-11T12:16:40.194Z,309.38
2023-05-11T12:17:40.047Z,320.62
2023-05-11T12:18:40.195Z,331.88
2023-05-11T12:19:40.144Z,354.38
2023-05-11T12:20:39.193Z,343.12
2023-05-11T12:21:39.179Z,343.12
2023-05-11T12:22:39.140Z,343.12
2023-05-11T12:23:39.102Z,365.62
2023-05-11T12:24:39.110Z,376.88
2023-05-11T12:25:39.371Z,371.25
2023-05-11T12:26:39.071Z,371.25
2023-05-11T12:27:39.078Z,343.12
2023-05-11T12:28:39.294Z,286.88
2023-05-11T12:29:40.152Z,258.75
2023-05-11T12:30:39.055Z,303.75
2023-05-11T12:31:39.227Z,331.88
2023-05-11T12:32:39.842Z,337.50
2023-05-11T12:33:39.018Z,337.50
2023-05-11T12:34:38.967Z,388.12
2023-05-11T12:35:38.992Z,517.50
2023-05-11T12:36:39.000Z,596.25
2023-05-11T12:37:39.925Z,590.62
2023-05-11T12:38:38.956Z,568.12
2023-05-11T12:39:38.927Z,601.88
2023-05-11T12:40:40.168Z,540.00
2023-05-11T12:41:40.163Z,270.00
2023-05-11T12:42:39.161Z,230.62
2023-05-11T12:43:39.897Z,292.50
2023-05-11T12:44:39.145Z,208.12
2023-05-11T12:45:39.191Z,185.62
2023-05-11T12:46:38.948Z,208.12
2023-05-11T12:47:38.925Z,292.50
2023-05-11T12:48:40.184Z,213.75
2023-05-11T12:49:40.178Z,298.12
2023-05-11T12:50:38.858Z,185.62
2023-05-11T12:51:39.666Z,185.62
2023-05-11T12:52:38.826Z,196.88
2023-05-11T12:53:38.894Z,191.25